createdAt,value
2022-10-14T00:01:23.310Z,22.35
2022-10-14T00:04:03.146Z,22.77
2022-10-14T00:06:32.508Z,24.77
2022-10-14T00:09:03.835Z,21.13
2022-10-14T00:11:32.906Z,26.33
2022-10-14T00:14:05.208Z,24.42
2022-10-14T00:16:37.825Z,18.02
2022-10-14T00:19:06.229Z,23.67
2022-10-14T00:21:35.100Z,25.77
2022-10-14T00:24:02.363Z,20.70
2022-10-14T00:26:33.347Z,26.20
2022-10-14T00:29:02.106Z,28.02
2022-10-14T00:31:33.037Z,27.20
2022-10-14T00:34:01.023Z,23.10
2022-10-14T00:36:28.180Z,23.08
2022-10-14T00:38:56.563Z,23.27
2022-10-14T00:41:27.900Z,23.88
2022-10-14T00:44:01.146Z,23.13
2022-10-14T00:46:35.114Z,22.17
2022-10-14T00:49:11.820Z,28.77
2022-10-14T00:51:41.280Z,23.20
2022-10-14T00:54:09.846Z,20.55
2022-10-14T00:56:37.555Z,21.33
2022-10-14T00:59:09.528Z,24.40
2022-10-14T01:01:36.912Z,19.45
2022-10-14T01:04:05.021Z,22.70
2022-10-14T01:06:48.202Z,23.35
2022-10-14T01:09:54.470Z,20.30
2022-10-14T01:12:50.285Z,23.08
2022-10-14T01:15:26.396Z,20.08
2022-10-14T01:18:24.367Z,22.88
2022-10-14T01:21:22.488Z,22.58
2022-10-14T01:24:18.408Z,21.08
2022-10-14T01:27:10.202Z,25.23
2022-10-14T01:30:01.351Z,21.58
2022-10-14T01:32:50.855Z,25.25
2022-10-14T01:35:31.266Z,22.70
2022-10-14T01:38:03.573Z,24.08
2022-10-14T01:40:50.299Z,22.17
2022-10-14T01:43:22.990Z,25.20
2022-10-14T01:45:52.137Z,27.80
2022-10-14T01:48:24.852Z,24.25
2022-10-14T01:50:54.930Z,30.60
2022-10-14T01:53:26.258Z,29.27
2022-10-14T01:55:55.799Z,30.88
2022-10-14T01:58:27.247Z,28.77
2022-10-14T02:00:54.947Z,27.40
2022-10-14T02:03:22.090Z,29.38
2022-10-14T02:06:07.547Z,34.80
2022-10-14T02:09:00.954Z,32.95
2022-10-14T02:11:37.965Z,31.88
2022-10-14T02:14:23.974Z,29.75
2022-10-14T02:17:06.539Z,35.63
2022-10-14T02:19:44.147Z,28.33
2022-10-14T02:22:11.292Z,39.20
2022-10-14T02:24:54.221Z,31.85
2022-10-14T02:27:25.337Z,27.70
2022-10-14T02:29:57.495Z,33.65
2022-10-14T02:32:26.279Z,31.33
2022-10-14T02:34:57.666Z,32.72
2022-10-14T02:37:26.616Z,34.35
2022-10-14T02:40:08.875Z,26.75
2022-10-14T02:42:36.407Z,32.92
2022-10-14T02:45:06.608Z,34.67
2022-10-14T02:47:33.965Z,28.33
2022-10-14T02:50:01.377Z,36.88
2022-10-14T02:52:30.116Z,31.08
2022-10-14T02:54:58.306Z,27.00
2022-10-14T02:57:25.949Z,30.02
2022-10-14T02:59:53.106Z,30.48
2022-10-14T03:02:20.620Z,32.33
2022-10-14T03:04:48.450Z,30.58
2022-10-14T03:07:15.577Z,29.00
2022-10-14T03:09:46.726Z,30.45
2022-10-14T03:12:13.910Z,31.25
2022-10-14T03:14:41.676Z,34.92
2022-10-14T03:17:12.124Z,32.00
2022-10-14T03:19:40.397Z,30.73
2022-10-14T03:22:08.615Z,33.25
2022-10-14T03:24:37.690Z,35.10
2022-10-14T03:27:21.817Z,30.08
2022-10-14T03:29:53.403Z,29.50
2022-10-14T03:32:24.415Z,29.83
2022-10-14T03:35:14.079Z,28.65
2022-10-14T03:37:44.385Z,35.05
2022-10-14T03:40:12.844Z,30.73
2022-10-14T03:42:42.863Z,30.75
2022-10-14T03:45:10.870Z,31.10
2022-10-14T03:47:40.434Z,34.35
2022-10-14T03:50:08.165Z,31.95
2022-10-14T03:52:47.453Z,32.67
2022-10-14T03:55:26.470Z,33.90
2022-10-14T03:57:54.103Z,33.15
2022-10-14T04:00:21.713Z,37.25
2022-10-14T04:02:58.708Z,34.75
2022-10-14T04:05:39.723Z,31.75
2022-10-14T04:08:17.669Z,36.13
2022-10-14T04:10:56.455Z,34.17
2022-10-14T04:13:25.366Z,37.75
2022-10-14T04:15:53.032Z,35.45
2022-10-14T04:18:35.131Z,32.15
2022-10-14T04:21:08.348Z,36.42
2022-10-14T04:23:36.964Z,35.05
2022-10-14T04:26:12.503Z,39.78
2022-10-14T04:28:40.353Z,40.38
2022-10-14T04:31:13.632Z,39.63
2022-10-14T04:33:55.890Z,37.30
2022-10-14T04:36:30.174Z,35.95
2022-10-14T04:38:59.919Z,35.17
2022-10-14T04:41:27.805Z,39.10
2022-10-14T04:43:57.634Z,33.63
2022-10-14T04:46:33.056Z,28.77
2022-10-14T04:49:01.074Z,33.40
2022-10-14T04:54:10.520Z,35.40
2022-10-14T04:56:57.945Z,37.05
2022-10-14T04:59:25.282Z,33.63
2022-10-14T05:02:12.825Z,32.80
2022-10-14T05:04:50.381Z,34.33
2022-10-14T05:07:18.076Z,35.67
2022-10-14T05:09:54.189Z,26.13
2022-10-14T05:12:34.831Z,36.45
2022-10-14T05:15:05.427Z,36.70
2022-10-14T05:17:45.852Z,36.88
2022-10-14T05:20:16.636Z,35.08
2022-10-14T05:22:47.558Z,36.10
2022-10-14T05:25:14.868Z,32.60
2022-10-14T05:27:42.417Z,39.95
2022-10-14T05:30:10.804Z,36.33
2022-10-14T05:32:44.004Z,32.63
2022-10-14T05:35:11.340Z,33.38
2022-10-14T05:37:41.011Z,35.95
2022-10-14T05:40:09.404Z,40.92
2022-10-14T05:42:37.547Z,39.20
2022-10-14T05:45:06.131Z,37.22
2022-10-14T05:50:13.458Z,37.53
2022-10-14T05:52:44.201Z,42.33
2022-10-14T05:55:17.610Z,43.17
2022-10-14T05:57:46.423Z,40.33
2022-10-14T06:00:23.299Z,43.80
2022-10-14T06:02:59.166Z,42.15
2022-10-14T06:05:27.364Z,45.42
2022-10-14T06:07:54.598Z,39.10
2022-10-14T06:10:22.800Z,41.45
2022-10-14T06:12:50.036Z,37.13
2022-10-14T06:15:17.462Z,37.53
2022-10-14T06:17:44.877Z,37.03
2022-10-14T06:20:12.063Z,38.22
2022-10-14T06:22:39.192Z,43.55
2022-10-14T06:25:06.976Z,33.50
2022-10-14T06:27:34.244Z,45.47
2022-10-14T06:30:01.607Z,39.00
2022-10-14T06:32:29.059Z,35.38
2022-10-14T06:34:56.272Z,34.95
2022-10-14T06:37:23.882Z,32.28
2022-10-14T06:39:51.250Z,31.55
2022-10-14T06:42:18.489Z,30.75
2022-10-14T06:44:45.776Z,29.63
2022-10-14T06:47:13.187Z,31.45
2022-10-14T06:49:40.349Z,29.48
2022-10-14T06:52:07.637Z,28.60
2022-10-14T06:54:38.998Z,29.25
2022-10-14T06:57:06.991Z,27.98
2022-10-14T06:59:34.254Z,32.42
2022-10-14T07:02:01.667Z,31.50
2022-10-14T07:04:28.872Z,27.92
2022-10-14T07:06:57.857Z,29.25
2022-10-14T07:09:25.237Z,30.98
2022-10-14T07:11:52.462Z,31.38
2022-10-14T07:14:19.797Z,25.50
2022-10-14T07:16:47.222Z,30.30
2022-10-14T07:19:14.501Z,28.27
2022-10-14T07:21:42.967Z,26.55
2022-10-14T07:24:10.415Z,32.35
2022-10-14T07:26:37.653Z,29.60
2022-10-14T07:29:05.751Z,30.60
2022-10-14T07:31:33.229Z,28.95
2022-10-14T07:34:01.743Z,27.80
2022-10-14T07:36:28.925Z,32.90
2022-10-14T07:38:56.568Z,28.38
2022-10-14T07:41:25.347Z,26.25
2022-10-14T07:44:01.951Z,30.20
2022-10-14T07:46:32.339Z,31.50
2022-10-14T07:49:13.731Z,28.08
2022-10-14T07:51:42.300Z,25.63
2022-10-14T07:54:14.984Z,28.42
2022-10-14T07:56:43.334Z,29.48
2022-10-14T07:59:10.780Z,31.15
2022-10-14T08:01:38.673Z,33.72
2022-10-14T08:04:06.032Z,27.33
2022-10-14T08:06:33.449Z,29.98
2022-10-14T08:09:00.652Z,27.90
2022-10-14T08:11:29.098Z,27.17
2022-10-14T08:13:58.165Z,27.02
2022-10-14T08:16:27.857Z,27.92
2022-10-14T08:19:00.537Z,30.50
2022-10-14T08:21:28.706Z,28.83
2022-10-14T08:23:56.165Z,26.55
2022-10-14T08:26:35.286Z,30.98
2022-10-14T08:29:06.057Z,28.48
2022-10-14T08:31:34.228Z,29.43
2022-10-14T08:34:01.858Z,32.22
2022-10-14T08:36:29.449Z,30.50
2022-10-14T08:38:56.878Z,26.80
2022-10-14T08:41:46.937Z,27.77
2022-10-14T08:44:17.638Z,31.23
2022-10-14T08:46:54.438Z,36.97
2022-10-14T08:49:29.917Z,33.13
2022-10-14T08:52:04.959Z,31.52
2022-10-14T08:54:37.673Z,28.42
2022-10-14T08:57:12.691Z,29.55
2022-10-14T08:59:41.786Z,27.00
2022-10-14T09:02:42.712Z,33.25
2022-10-14T09:05:22.066Z,36.63
2022-10-14T09:07:52.411Z,33.05
2022-10-14T09:10:36.311Z,32.33
2022-10-14T09:13:18.916Z,35.30
2022-10-14T09:15:50.473Z,37.22
2022-10-14T09:18:27.019Z,35.80
2022-10-14T09:20:56.423Z,37.30
2022-10-14T09:23:27.842Z,33.10
2022-10-14T09:26:04.289Z,33.58
2022-10-14T09:28:44.541Z,31.77
2022-10-14T09:31:14.029Z,29.17
2022-10-14T09:33:43.091Z,28.17
2022-10-14T09:36:17.671Z,35.45
2022-10-14T09:38:48.021Z,32.92
2022-10-14T09:41:16.344Z,33.08
2022-10-14T09:44:23.217Z,34.10
2022-10-14T09:46:55.283Z,31.73
2022-10-14T09:49:42.509Z,28.58
2022-10-14T09:52:22.410Z,31.42
2022-10-14T09:54:55.362Z,33.95
2022-10-14T09:57:24.562Z,32.53
2022-10-14T09:59:57.563Z,32.33
2022-10-14T10:02:33.892Z,32.55
2022-10-14T10:05:23.098Z,35.55
2022-10-14T10:08:02.257Z,32.95
2022-10-14T10:10:31.196Z,32.20
2022-10-14T10:12:58.891Z,32.33
2022-10-14T10:15:26.392Z,34.30
2022-10-14T10:17:53.767Z,33.63
2022-10-14T10:20:33.222Z,32.78
2022-10-14T10:23:19.822Z,33.22
2022-10-14T10:25:48.287Z,30.60
2022-10-14T10:28:27.169Z,37.63
2022-10-14T10:31:19.704Z,37.53
2022-10-14T10:34:02.429Z,40.58
2022-10-14T10:36:42.591Z,33.88
2022-10-14T10:39:12.613Z,38.00
2022-10-14T10:41:53.591Z,39.33
2022-10-14T10:44:52.855Z,42.33
2022-10-14T10:47:31.486Z,41.90
2022-10-14T10:50:40.214Z,37.15
2022-10-14T10:53:19.647Z,41.60
2022-10-14T10:55:59.882Z,42.55
2022-10-14T10:58:40.968Z,47.33
2022-10-14T11:01:33.513Z,42.38
2022-10-14T11:04:19.373Z,38.08
2022-10-14T11:07:27.774Z,40.28
2022-10-14T11:10:29.527Z,39.38
2022-10-14T11:13:35.456Z,44.63
2022-10-14T11:16:07.868Z,43.40
2022-10-14T11:18:47.592Z,42.20
2022-10-14T11:21:15.001Z,43.33
2022-10-14T11:23:57.206Z,44.80
2022-10-14T11:26:46.620Z,40.67
2022-10-14T11:29:23.176Z,42.42
2022-10-14T11:32:12.247Z,38.92
2022-10-14T11:35:02.024Z,41.33
2022-10-14T11:37:46.509Z,43.47
2022-10-14T11:40:13.581Z,36.22
2022-10-14T11:43:02.423Z,38.40
2022-10-14T11:45:41.675Z,38.50
2022-10-14T11:48:30.152Z,40.17
2022-10-14T11:51:26.002Z,40.10
2022-10-14T11:54:04.158Z,38.67
2022-10-14T11:56:46.334Z,39.63
2022-10-14T11:59:19.845Z,41.30
2022-10-14T12:01:52.210Z,40.80
2022-10-14T12:04:28.016Z,42.42
2022-10-14T12:07:06.948Z,44.97
2022-10-14T12:09:44.878Z,46.08
2022-10-14T12:12:15.338Z,41.25
2022-10-14T12:14:50.191Z,43.78
2022-10-14T12:17:43.556Z,41.05
2022-10-14T12:20:30.725Z,44.97
2022-10-14T12:22:59.668Z,36.50
2022-10-14T12:25:30.610Z,35.65
2022-10-14T12:27:58.279Z,34.40
2022-10-14T12:30:33.961Z,45.42
2022-10-14T12:33:05.058Z,43.10
2022-10-14T12:35:46.384Z,40.95
2022-10-14T12:38:18.650Z,42.13
2022-10-14T12:40:48.448Z,41.75
2022-10-14T12:43:20.596Z,41.65
2022-10-14T12:45:59.329Z,39.45
2022-10-14T12:48:30.035Z,40.78
2022-10-14T12:51:16.634Z,36.80
2022-10-14T12:54:05.444Z,33.47
2022-10-14T12:57:01.198Z,34.83
2022-10-14T12:59:36.509Z,39.15
2022-10-14T13:02:26.396Z,38.72
2022-10-14T13:04:55.244Z,40.05
2022-10-14T13:07:39.824Z,39.78
2022-10-14T13:10:27.855Z,36.20
2022-10-14T13:12:55.281Z,43.03
2022-10-14T13:15:57.932Z,41.28
2022-10-14T13:18:28.295Z,41.92
2022-10-14T13:20:55.419Z,32.05
2022-10-14T13:23:37.937Z,40.03
2022-10-14T13:26:28.471Z,40.40
2022-10-14T13:29:20.116Z,37.70
2022-10-14T13:34:51.322Z,38.10
2022-10-14T13:37:32.267Z,35.95
2022-10-14T13:40:27.247Z,29.95
2022-10-14T13:43:02.156Z,27.63
2022-10-14T13:45:37.043Z,26.48
2022-10-14T13:48:14.737Z,26.65
2022-10-14T13:50:42.910Z,29.65
2022-10-14T13:53:22.802Z,26.80
2022-10-14T13:55:54.830Z,22.88
2022-10-14T13:58:24.300Z,22.73
2022-10-14T14:00:58.083Z,20.80
2022-10-14T14:03:36.161Z,22.50
2022-10-14T14:06:14.335Z,20.83
2022-10-14T14:09:08.057Z,19.75
2022-10-14T14:11:37.674Z,23.20
2022-10-14T14:14:17.463Z,22.42
2022-10-14T14:17:07.920Z,19.88
2022-10-14T14:19:37.788Z,21.52
2022-10-14T14:22:18.753Z,23.00
2022-10-14T14:24:48.144Z,20.88
2022-10-14T14:27:21.589Z,19.80
2022-10-14T14:29:51.682Z,18.55
2022-10-14T14:32:23.036Z,20.02
2022-10-14T14:37:54.677Z,28.25
2022-10-14T14:40:21.522Z,19.20
2022-10-14T14:42:52.473Z,23.90
2022-10-14T14:45:25.969Z,18.67
2022-10-14T14:48:04.300Z,20.00
2022-10-14T14:50:36.893Z,21.00
2022-10-14T14:53:10.967Z,21.02
2022-10-14T14:56:02.445Z,24.60
2022-10-14T14:58:43.020Z,25.75
2022-10-14T15:01:24.915Z,28.92
2022-10-14T15:04:12.396Z,25.08
2022-10-14T15:06:39.743Z,24.73
2022-10-14T15:09:24.062Z,22.80
2022-10-14T15:11:58.037Z,23.98
2022-10-14T15:14:40.814Z,28.00
2022-10-14T15:17:27.176Z,25.55
2022-10-14T15:20:20.106Z,22.35
2022-10-14T15:22:49.244Z,26.38
2022-10-14T15:25:21.575Z,20.23
2022-10-14T15:28:02.717Z,30.27
2022-10-14T15:30:40.166Z,24.27
2022-10-14T15:33:22.073Z,26.33
2022-10-14T15:35:59.676Z,27.08
2022-10-14T15:38:27.875Z,27.50
2022-10-14T15:40:55.791Z,35.60
2022-10-14T15:43:25.919Z,34.30
2022-10-14T15:46:16.453Z,30.15
2022-10-14T15:48:52.527Z,29.60
2022-10-14T15:51:23.656Z,29.73
2022-10-14T15:53:52.005Z,28.70
2022-10-14T15:56:21.250Z,34.97
2022-10-14T15:58:49.351Z,36.10
2022-10-14T16:01:20.668Z,37.33
2022-10-14T16:03:55.433Z,32.05
2022-10-14T16:06:24.224Z,35.75
2022-10-14T16:08:51.813Z,33.75
2022-10-14T16:11:25.553Z,33.40
2022-10-14T16:13:53.599Z,42.08
2022-10-14T16:16:44.648Z,40.13
2022-10-14T16:19:12.520Z,35.63
2022-10-14T16:21:40.443Z,37.78
2022-10-14T16:24:14.889Z,35.35
2022-10-14T16:26:42.391Z,32.58
2022-10-14T16:29:11.664Z,32.15
2022-10-14T16:31:39.024Z,35.40
2022-10-14T16:34:06.175Z,40.63
2022-10-14T16:36:33.333Z,33.10
2022-10-14T16:39:06.534Z,33.25
2022-10-14T16:41:33.759Z,38.53
2022-10-14T16:44:00.934Z,38.35
2022-10-14T16:46:46.949Z,37.92
2022-10-14T16:49:14.421Z,41.83
2022-10-14T16:51:43.086Z,42.38
2022-10-14T16:54:11.089Z,39.28
2022-10-14T16:56:53.552Z,42.63
2022-10-14T16:59:22.073Z,48.83
2022-10-14T17:01:49.679Z,40.65
2022-10-14T17:04:20.144Z,46.28
2022-10-14T17:06:52.217Z,36.88
2022-10-14T17:09:19.747Z,42.78
2022-10-14T17:11:47.714Z,41.33
2022-10-14T17:14:18.269Z,37.35
2022-10-14T17:16:47.112Z,41.03
2022-10-14T17:19:15.576Z,41.75
2022-10-14T17:21:42.929Z,46.90
2022-10-14T17:24:10.333Z,47.55
2022-10-14T17:26:37.518Z,44.60
2022-10-14T17:29:04.947Z,39.35
2022-10-14T17:31:32.288Z,41.47
2022-10-14T17:33:59.902Z,49.55
2022-10-14T17:36:29.024Z,44.15
2022-10-14T17:38:57.648Z,39.65
2022-10-14T17:41:26.732Z,42.90
2022-10-14T17:43:56.449Z,46.00
2022-10-14T17:46:25.881Z,42.75
2022-10-14T17:48:56.253Z,43.25
2022-10-14T17:51:25.578Z,46.10
2022-10-14T17:53:58.528Z,46.42
2022-10-14T17:56:30.140Z,47.53
2022-10-14T17:59:00.096Z,50.20
2022-10-14T18:01:37.049Z,47.90
2022-10-14T18:04:11.325Z,48.80
2022-10-14T18:06:39.045Z,41.45
2022-10-14T18:09:09.050Z,47.00
2022-10-14T18:12:12.797Z,55.67
2022-10-14T18:14:30.610Z,50.13
2022-10-14T18:16:59.390Z,47.97
2022-10-14T18:19:27.219Z,49.28
2022-10-14T18:21:54.545Z,48.58
2022-10-14T18:24:21.819Z,50.70
2022-10-14T18:26:53.406Z,51.58
2022-10-14T18:29:20.810Z,50.00
2022-10-14T18:31:50.052Z,46.42
2022-10-14T18:34:17.792Z,47.42
2022-10-14T18:36:45.099Z,48.30
2022-10-14T18:39:12.451Z,48.97
2022-10-14T18:41:40.006Z,47.97
2022-10-14T18:44:07.947Z,51.47
2022-10-14T18:46:37.400Z,47.78
2022-10-14T18:49:07.419Z,52.10
2022-10-14T18:51:37.366Z,46.45
2022-10-14T18:54:11.075Z,53.75
2022-10-14T18:56:38.954Z,52.75
2022-10-14T18:59:12.590Z,49.20
2022-10-14T19:01:40.406Z,47.72
2022-10-14T19:04:09.635Z,54.22
2022-10-14T19:06:37.066Z,47.13
2022-10-14T19:09:05.524Z,52.33
2022-10-14T19:11:34.530Z,57.10
2022-10-14T19:14:03.860Z,54.25
2022-10-14T19:16:33.713Z,57.20
2022-10-14T19:19:20.399Z,55.00
2022-10-14T19:21:54.445Z,51.90
2022-10-14T19:24:22.244Z,57.95
2022-10-14T19:26:50.255Z,52.95
2022-10-14T19:29:17.936Z,46.83
2022-10-14T19:31:45.337Z,56.15
2022-10-14T19:34:15.577Z,55.65
2022-10-14T19:36:44.241Z,51.20
2022-10-14T19:39:14.431Z,51.72
2022-10-14T19:41:46.568Z,53.05
2022-10-14T19:44:15.859Z,49.15
2022-10-14T19:46:45.018Z,49.58
2022-10-14T19:49:14.038Z,50.70
2022-10-14T19:51:42.144Z,53.50
2022-10-14T19:54:12.083Z,55.20
2022-10-14T19:56:39.705Z,53.97
2022-10-14T19:59:07.253Z,49.67
2022-10-14T20:01:34.809Z,55.88
2022-10-14T20:04:02.631Z,56.50
2022-10-14T20:06:35.849Z,49.45
2022-10-14T20:09:04.178Z,55.38
2022-10-14T20:11:31.967Z,56.58
2022-10-14T20:13:59.464Z,59.78
2022-10-14T20:16:27.363Z,67.07
2022-10-14T20:18:56.075Z,64.75
2022-10-14T20:21:23.778Z,68.65
2022-10-14T20:23:51.217Z,65.55
2022-10-14T20:26:21.316Z,63.15
2022-10-14T20:28:49.427Z,62.30
2022-10-14T20:31:20.039Z,68.28
2022-10-14T20:33:47.406Z,67.22
2022-10-14T20:36:17.596Z,77.43
2022-10-14T20:38:45.707Z,77.50
2022-10-14T20:41:15.915Z,78.53
2022-10-14T20:43:44.127Z,73.68
2022-10-14T20:46:11.938Z,70.18
2022-10-14T20:48:39.537Z,76.82
2022-10-14T20:51:08.758Z,70.18
2022-10-14T20:53:36.595Z,73.70
2022-10-14T20:56:07.027Z,69.68
2022-10-14T20:58:34.602Z,73.85
2022-10-14T21:01:09.261Z,71.03
2022-10-14T21:03:36.537Z,66.00
2022-10-14T21:06:05.983Z,65.00
2022-10-14T21:08:33.766Z,68.82
2022-10-14T21:11:02.347Z,71.60
2022-10-14T21:13:30.511Z,69.47
2022-10-14T21:15:57.999Z,67.25
2022-10-14T21:18:25.417Z,63.17
2022-10-14T21:23:25.287Z,58.83
2022-10-14T21:25:57.541Z,62.70
2022-10-14T21:28:24.949Z,64.43
2022-10-14T21:30:52.172Z,66.55
2022-10-14T21:33:19.422Z,59.50
2022-10-14T21:35:46.751Z,66.75
2022-10-14T21:38:13.901Z,66.57
2022-10-14T21:40:41.126Z,56.35
2022-10-14T21:43:08.531Z,58.92
2022-10-14T21:45:35.820Z,54.50
2022-10-14T21:48:03.175Z,61.00
2022-10-14T21:50:30.532Z,56.40
2022-10-14T21:52:58.082Z,57.25
2022-10-14T21:55:25.308Z,55.55
2022-10-14T21:57:52.713Z,56.95
2022-10-14T22:00:20.901Z,52.53
2022-10-14T22:02:52.131Z,57.05
2022-10-14T22:05:20.058Z,58.17
2022-10-14T22:07:48.012Z,55.15
2022-10-14T22:10:33.612Z,51.47
2022-10-14T22:13:01.439Z,51.47
2022-10-14T22:15:28.655Z,64.93
2022-10-14T22:17:55.865Z,54.72
2022-10-14T22:20:23.317Z,55.88
2022-10-14T22:22:50.674Z,54.50
2022-10-14T22:25:17.817Z,56.22
2022-10-14T22:27:45.167Z,57.92
2022-10-14T22:30:12.964Z,52.05
2022-10-14T22:32:40.135Z,51.75
2022-10-14T22:35:08.135Z,50.10
2022-10-14T22:37:35.350Z,48.40
2022-10-14T22:40:02.579Z,53.13
2022-10-14T22:42:30.284Z,51.10
2022-10-14T22:44:57.463Z,61.05
2022-10-14T22:47:25.030Z,51.53
2022-10-14T22:49:52.638Z,51.38
2022-10-14T22:52:19.939Z,54.13
2022-10-14T22:54:48.296Z,54.65
2022-10-14T22:57:15.719Z,62.38
2022-10-14T22:59:42.950Z,51.28
2022-10-14T23:02:10.157Z,50.03
2022-10-14T23:04:37.484Z,51.33
2022-10-14T23:07:06.893Z,52.75
2022-10-14T23:12:02.653Z,52.30
2022-10-14T23:14:31.025Z,55.95
2022-10-14T23:16:58.190Z,49.70
2022-10-14T23:19:25.628Z,51.85
2022-10-14T23:21:52.907Z,50.10
2022-10-14T23:24:20.033Z,51.67
2022-10-14T23:26:47.403Z,49.38
2022-10-14T23:29:14.656Z,52.10
2022-10-14T23:31:41.842Z,56.08
2022-10-14T23:34:13.719Z,53.42
2022-10-14T23:36:41.571Z,48.75
2022-10-14T23:39:09.251Z,51.33
2022-10-14T23:41:36.630Z,50.17
2022-10-14T23:44:03.832Z,55.72
2022-10-14T23:46:30.963Z,56.45
2022-10-14T23:49:07.270Z,50.30
2022-10-14T23:51:42.191Z,53.80
2022-10-14T23:54:09.674Z,53.13
2022-10-14T23:56:36.850Z,57.78
2022-10-14T23:59:04.032Z,63.13
